Time;durP1;ratioP1;P1;durP2;ratioP2;P2;SDS_P1;SDS_P2;PMS_P1;PMS_P2;Temp;Humidity;BMP_temperature;BMP_pressure;BME280_temperature;BME280_humidity;BME280_pressure;Samples;Min_cycle;Max_cycle;Signal;HPM_P1;HPM_P2
2023/08/11 00:00:42;;;;;;;7.73;4.20;;;16.60;99.90;;;;;;5013188;28;20458;-74
2023/08/11 00:03:09;;;;;;;4.30;3.27;;;16.60;99.90;;;;;;5013048;28;20450;-74
2023/08/11 00:05:37;;;;;;;5.40;3.37;;;16.60;99.90;;;;;;5013019;28;20533;-74
2023/08/11 00:08:05;;;;;;;4.40;3.40;;;16.50;99.90;;;;;;5012999;28;20532;-74
2023/08/11 00:10:32;;;;;;;6.80;3.10;;;16.50;99.90;;;;;;5012882;28;20463;-74
2023/08/11 00:12:59;;;;;;;8.30;3.17;;;16.50;99.90;;;;;;5013908;28;20461;-74
2023/08/11 00:15:28;;;;;;;6.10;3.47;;;16.50;99.90;;;;;;5015544;28;20528;-74
2023/08/11 00:17:58;;;;;;;3.93;3.33;;;16.50;99.90;;;;;;5012714;28;20891;-74
2023/08/11 00:20:25;;;;;;;5.57;3.60;;;16.40;99.90;;;;;;5012130;28;20822;-74
2023/08/11 00:22:51;;;;;;;11.20;3.43;;;16.40;99.90;;;;;;5013001;28;20462;-74
2023/08/11 00:25:18;;;;;;;11.37;3.23;;;16.40;99.90;;;;;;5012427;28;20454;-74
2023/08/11 00:27:45;;;;;;;7.40;3.43;;;16.40;99.90;;;;;;5012673;28;21004;-74
2023/08/11 00:30:12;;;;;;;9.00;3.50;;;16.40;99.90;;;;;;5012382;28;20481;-74
2023/08/11 00:32:40;;;;;;;7.40;3.43;;;16.40;99.90;;;;;;5016937;28;20468;-73
2023/08/11 00:35:08;;;;;;;7.80;4.00;;;16.30;99.90;;;;;;5012645;28;20425;-74
2023/08/11 00:37:35;;;;;;;5.37;3.47;;;16.30;99.90;;;;;;5012540;28;20500;-74
2023/08/11 00:40:03;;;;;;;9.97;3.80;;;16.20;99.90;;;;;;5012199;28;20471;-74
2023/08/11 00:42:30;;;;;;;4.90;3.17;;;16.20;99.90;;;;;;5019452;28;20889;-74
2023/08/11 00:44:58;;;;;;;5.67;3.80;;;16.20;99.90;;;;;;5012413;28;20516;-73
2023/08/11 00:47:25;;;;;;;4.40;3.43;;;16.10;99.90;;;;;;5012380;28;20454;-74
2023/08/11 00:49:53;;;;;;;4.47;3.40;;;16.10;99.90;;;;;;5012014;28;20468;-73
2023/08/11 00:52:20;;;;;;;4.57;3.70;;;16.00;99.90;;;;;;5011953;28;20865;-74
2023/08/11 00:54:47;;;;;;;10.07;3.30;;;15.90;99.90;;;;;;5012198;28;20497;-74
2023/08/11 00:57:14;;;;;;;4.37;3.80;;;15.80;99.90;;;;;;5012352;28;20487;-74
2023/08/11 00:59:41;;;;;;;4.20;3.50;;;15.80;99.90;;;;;;5011742;28;21005;-74
2023/08/11 01:02:10;;;;;;;5.17;3.47;;;15.80;99.90;;;;;;5012049;28;20428;-74
2023/08/11 01:04:37;;;;;;;10.47;3.63;;;15.70;99.90;;;;;;5012037;28;20488;-74
2023/08/11 01:07:16;;;;;;;8.20;3.50;;;15.80;99.90;;;;;;5011855;28;20428;-74
2023/08/11 01:09:52;;;;;;;8.17;3.70;;;15.70;99.90;;;;;;5016061;28;20482;-73
2023/08/11 01:12:25;;;;;;;5.53;3.63;;;15.60;99.90;;;;;;5013475;28;20482;-74
2023/08/11 01:15:04;;;;;;;7.30;3.30;;;15.60;99.90;;;;;;5011895;28;21004;-74
2023/08/11 01:17:32;;;;;;;9.23;3.73;;;15.60;99.90;;;;;;5011947;28;20432;-74
2023/08/11 01:20:00;;;;;;;5.20;3.00;;;15.60;99.90;;;;;;5011091;28;20482;-74
2023/08/11 01:22:31;;;;;;;4.73;3.67;;;15.50;99.90;;;;;;5011902;28;20454;-73
2023/08/11 01:25:00;;;;;;;5.37;3.23;;;15.50;99.90;;;;;;5013636;28;20437;-73
2023/08/11 01:27:28;;;;;;;4.40;3.53;;;15.50;99.90;;;;;;5011540;28;20919;-74
2023/08/11 01:29:55;;;;;;;4.83;3.53;;;15.40;99.90;;;;;;5011153;28;20497;-73
2023/08/11 01:32:21;;;;;;;5.93;3.70;;;15.40;99.90;;;;;;5010728;28;21278;-73
2023/08/11 01:34:48;;;;;;;6.40;3.70;;;15.30;99.90;;;;;;5011716;28;20486;-73
2023/08/11 01:37:14;;;;;;;6.97;3.30;;;15.30;99.90;;;;;;5011671;28;20421;-73
2023/08/11 01:39:41;;;;;;;5.27;3.43;;;15.20;99.90;;;;;;5018393;28;20474;-74
2023/08/11 01:42:10;;;;;;;7.10;3.13;;;15.20;99.90;;;;;;5011173;28;20457;-73
2023/08/11 01:44:37;;;;;;;7.07;4.57;;;15.20;99.90;;;;;;5011321;28;20480;-73
2023/08/11 01:47:06;;;;;;;7.87;4.17;;;15.10;99.90;;;;;;5011456;28;20508;-74
2023/08/11 01:49:33;;;;;;;8.40;3.10;;;15.10;99.90;;;;;;5011224;28;20652;-74
2023/08/11 01:52:00;;;;;;;5.37;3.50;;;15.10;99.90;;;;;;5011564;28;20566;-74
2023/08/11 01:54:27;;;;;;;5.90;3.30;;;15.00;99.90;;;;;;5011070;28;20519;-74
2023/08/11 01:56:54;;;;;;;9.90;3.20;;;14.90;99.90;;;;;;5011259;28;20450;-73
2023/08/11 01:59:23;;;;;;;6.07;3.73;;;14.90;99.90;;;;;;5010755;28;21167;-73
2023/08/11 02:01:50;;;;;;;7.27;3.20;;;14.80;99.90;;;;;;5011289;28;20421;-73
2023/08/11 02:04:17;;;;;;;5.87;3.40;;;14.80;99.90;;;;;;5010937;28;20905;-73
2023/08/11 02:06:45;;;;;;;13.70;4.50;;;14.80;99.90;;;;;;5011345;28;20433;-73
2023/08/11 02:09:12;;;;;;;4.57;3.10;;;14.80;99.90;;;;;;5010581;28;20455;-73
2023/08/11 02:11:40;;;;;;;4.20;3.40;;;14.80;99.90;;;;;;5011308;28;20919;-73
2023/08/11 02:14:07;;;;;;;3.13;2.80;;;14.70;99.90;;;;;;5013025;28;20460;-73
2023/08/11 02:16:36;;;;;;;6.00;3.57;;;14.80;99.90;;;;;;5010882;28;20436;-73
2023/08/11 02:19:04;;;;;;;4.07;3.53;;;14.80;99.90;;;;;;5010659;28;20952;-73
2023/08/11 02:21:31;;;;;;;10.30;3.90;;;14.70;99.90;;;;;;5011034;28;20471;-73
2023/08/11 02:23:58;;;;;;;7.87;3.80;;;14.70;99.90;;;;;;5010969;28;20471;-73
2023/08/11 02:26:24;;;;;;;5.20;4.00;;;14.70;99.90;;;;;;5017078;28;20495;-73
2023/08/11 02:28:52;;;;;;;8.17;3.57;;;14.70;99.90;;;;;;5010918;28;20451;-73
2023/08/11 02:31:19;;;;;;;14.23;3.70;;;14.60;99.90;;;;;;5010955;28;20919;-73
2023/08/11 02:33:47;;;;;;;8.50;4.00;;;14.60;99.90;;;;;;5011061;28;20456;-73
2023/08/11 02:36:14;;;;;;;8.10;3.80;;;14.60;99.90;;;;;;5011421;28;20491;-73
2023/08/11 02:38:41;;;;;;;3.60;3.30;;;14.50;99.90;;;;;;5010722;28;20814;-73
2023/08/11 02:41:08;;;;;;;5.13;3.83;;;14.50;99.90;;;;;;5010699;28;20508;-73
2023/08/11 02:43:36;;;;;;;4.47;4.03;;;14.40;99.90;;;;;;5012304;28;20855;-73
2023/08/11 02:46:03;;;;;;;6.80;3.63;;;14.30;99.90;;;;;;5014544;28;20432;-73
2023/08/11 02:48:30;;;;;;;4.07;3.67;;;14.30;99.90;;;;;;5014276;28;20477;-73
2023/08/11 02:50:58;;;;;;;4.07;3.57;;;14.40;99.90;;;;;;5014226;28;20722;-73
2023/08/11 02:53:25;;;;;;;4.77;4.07;;;14.40;99.90;;;;;;5014675;28;20539;-73
2023/08/11 02:55:52;;;;;;;5.40;3.63;;;14.40;99.90;;;;;;5014169;28;20866;-73
2023/08/11 02:58:18;;;;;;;5.43;3.83;;;14.40;99.90;;;;;;5017179;28;20432;-73
2023/08/11 03:00:46;;;;;;;6.50;3.60;;;14.30;99.90;;;;;;5013881;28;20454;-74
2023/08/11 03:03:14;;;;;;;9.23;3.83;;;14.30;99.90;;;;;;5014029;28;20425;-73
2023/08/11 03:05:42;;;;;;;11.73;4.87;;;14.30;99.90;;;;;;5014512;28;20428;-73
2023/08/11 03:08:10;;;;;;;8.67;3.93;;;14.30;99.90;;;;;;5014032;28;20464;-73
2023/08/11 03:10:37;;;;;;;8.03;3.73;;;14.30;99.90;;;;;;5014175;28;20486;-73
2023/08/11 03:13:04;;;;;;;4.00;3.60;;;14.30;99.90;;;;;;5013929;28;21033;-73
2023/08/11 03:15:31;;;;;;;11.57;4.20;;;14.30;99.90;;;;;;5013587;28;20801;-73
2023/08/11 03:17:58;;;;;;;5.87;4.07;;;14.20;99.90;;;;;;5013838;28;20446;-73
2023/08/11 03:20:24;;;;;;;9.33;4.77;;;14.20;99.90;;;;;;5013988;28;20457;-73
2023/08/11 03:22:51;;;;;;;6.80;4.00;;;14.20;99.90;;;;;;5013847;28;20511;-73
2023/08/11 03:25:20;;;;;;;14.13;5.40;;;14.20;99.90;;;;;;5013964;28;20896;-73
2023/08/11 03:27:46;;;;;;;7.80;4.53;;;14.20;99.90;;;;;;5013654;28;20793;-73
2023/08/11 03:30:13;;;;;;;7.33;3.83;;;14.10;99.90;;;;;;5013300;28;20466;-73
2023/08/11 03:32:40;;;;;;;6.50;4.00;;;14.20;99.90;;;;;;5013631;28;21157;-73
2023/08/11 03:35:07;;;;;;;9.40;4.60;;;14.10;99.90;;;;;;5013930;28;20999;-73
2023/08/11 03:37:35;;;;;;;9.03;4.10;;;14.10;99.90;;;;;;5013622;28;20454;-73
2023/08/11 03:40:05;;;;;;;7.37;4.03;;;14.10;99.90;;;;;;5013476;28;20478;-73
2023/08/11 03:42:33;;;;;;;4.87;3.53;;;14.00;99.90;;;;;;5012779;28;20437;-73
2023/08/11 03:45:00;;;;;;;8.30;3.83;;;14.00;99.90;;;;;;5013654;28;20479;-73
2023/08/11 03:47:27;;;;;;;4.40;3.90;;;13.90;99.90;;;;;;5013798;28;20446;-73
2023/08/11 03:49:53;;;;;;;8.53;4.43;;;13.90;99.90;;;;;;5013374;28;20528;-73
2023/08/11 03:52:20;;;;;;;17.77;4.20;;;13.90;99.90;;;;;;5016468;28;20794;-73
2023/08/11 03:54:47;;;;;;;4.73;4.20;;;13.90;99.90;;;;;;5012231;28;20483;-73
2023/08/11 03:57:14;;;;;;;9.30;4.00;;;13.90;99.90;;;;;;5013305;28;20463;-73
2023/08/11 03:59:42;;;;;;;5.23;3.77;;;13.90;99.90;;;;;;5012999;28;20964;-73
2023/08/11 04:02:09;;;;;;;4.70;4.30;;;13.90;99.90;;;;;;5013043;28;20954;-73
2023/08/11 04:04:37;;;;;;;5.47;3.97;;;13.90;99.90;;;;;;5012880;28;21007;-73
2023/08/11 04:07:05;;;;;;;6.80;4.03;;;13.90;99.90;;;;;;5012866;28;20433;-73
2023/08/11 04:09:31;;;;;;;6.63;4.67;;;13.90;99.90;;;;;;5012138;28;21006;-73
2023/08/11 04:11:58;;;;;;;10.47;4.27;;;13.90;99.90;;;;;;5013129;28;20425;-73
2023/08/11 04:14:25;;;;;;;10.63;4.60;;;13.90;99.90;;;;;;5014909;28;20456;-73
2023/08/11 04:16:53;;;;;;;4.53;3.93;;;13.90;99.90;;;;;;5012718;28;20453;-73
2023/08/11 04:19:19;;;;;;;6.60;4.23;;;14.00;99.90;;;;;;5012444;28;20852;-73
2023/08/11 04:21:47;;;;;;;8.77;4.03;;;13.90;99.90;;;;;;5020100;28;20429;-73
2023/08/11 04:24:15;;;;;;;4.80;4.30;;;14.00;99.90;;;;;;5012550;28;20466;-74
2023/08/11 04:26:42;;;;;;;10.27;4.17;;;14.00;99.90;;;;;;5012581;28;20484;-73
2023/08/11 04:29:08;;;;;;;10.70;4.83;;;14.00;99.90;;;;;;5012300;28;20448;-73
2023/08/11 04:31:35;;;;;;;9.20;4.83;;;13.90;99.90;;;;;;5012248;28;20432;-73
2023/08/11 04:34:05;;;;;;;6.03;3.80;;;14.00;99.90;;;;;;5012301;28;20814;-73
2023/08/11 04:36:32;;;;;;;12.73;4.80;;;14.00;99.90;;;;;;5019780;28;20443;-73
2023/08/11 04:38:58;;;;;;;6.10;4.47;;;13.90;99.90;;;;;;5012435;28;20525;-73
2023/08/11 04:41:24;;;;;;;10.40;4.50;;;14.00;99.90;;;;;;5011959;28;20533;-73
2023/08/11 04:43:51;;;;;;;6.37;4.20;;;14.10;99.90;;;;;;5012223;28;20203;-73
2023/08/11 04:46:18;;;;;;;6.90;4.17;;;14.10;99.90;;;;;;5012221;28;20454;-74
2023/08/11 04:48:44;;;;;;;7.90;5.53;;;14.10;99.90;;;;;;5011777;28;20488;-74
2023/08/11 04:51:12;;;;;;;7.70;4.47;;;14.10;99.90;;;;;;5012089;28;20462;-73
2023/08/11 04:53:39;;;;;;;10.70;5.27;;;14.10;99.90;;;;;;5012228;28;21001;-74
2023/08/11 04:56:06;;;;;;;6.90;4.73;;;14.10;99.90;;;;;;5012328;28;20433;-74
2023/08/11 04:58:33;;;;;;;8.90;4.70;;;14.00;99.90;;;;;;5012079;28;20474;-74
2023/08/11 05:01:00;;;;;;;6.37;4.20;;;14.00;99.90;;;;;;5011717;28;20433;-73
2023/08/11 05:03:29;;;;;;;10.53;5.33;;;14.00;99.90;;;;;;5011685;28;20456;-74
2023/08/11 05:05:56;;;;;;;7.50;4.47;;;14.10;99.90;;;;;;5011754;28;20475;-73
2023/08/11 05:08:24;;;;;;;8.60;4.83;;;14.10;99.90;;;;;;5011877;28;20421;-73
2023/08/11 05:10:50;;;;;;;5.50;4.30;;;14.20;99.90;;;;;;5011281;28;20449;-74
2023/08/11 05:13:17;;;;;;;14.63;5.00;;;14.20;99.90;;;;;;5011736;28;20433;-74
2023/08/11 05:15:44;;;;;;;6.27;4.73;;;14.30;99.90;;;;;;5011484;28;20425;-72
2023/08/11 05:18:11;;;;;;;10.53;4.60;;;14.50;99.90;;;;;;5012098;28;20950;-75
2023/08/11 05:20:38;;;;;;;10.63;4.80;;;14.60;99.90;;;;;;5011438;28;20504;-74
2023/08/11 05:23:04;;;;;;;15.30;5.50;;;14.70;99.90;;;;;;5011632;28;20447;-74
2023/08/11 05:25:32;;;;;;;11.87;4.90;;;14.80;99.90;;;;;;5017379;28;20536;-74
2023/08/11 05:27:59;;;;;;;9.53;4.57;;;14.90;99.90;;;;;;5011533;28;20417;-73
2023/08/11 05:30:27;;;;;;;14.73;4.97;;;15.10;99.90;;;;;;5011070;28;20989;-73
2023/08/11 05:32:54;;;;;;;11.43;4.07;;;15.20;99.90;;;;;;5011356;28;20461;-74
2023/08/11 05:35:21;;;;;;;10.33;4.70;;;15.30;99.90;;;;;;5011484;28;20464;-74
2023/08/11 05:37:49;;;;;;;8.47;4.90;;;15.40;99.90;;;;;;5010048;28;20452;-74
2023/08/11 05:40:16;;;;;;;9.53;4.37;;;15.50;99.90;;;;;;5010248;28;20452;-73
2023/08/11 05:42:44;;;;;;;8.00;4.77;;;15.70;99.90;;;;;;5009846;28;20488;-74
2023/08/11 05:45:11;;;;;;;7.60;3.87;;;15.80;99.90;;;;;;5011002;28;20425;-74
2023/08/11 05:47:38;;;;;;;7.23;4.30;;;16.00;99.90;;;;;;5010941;28;20462;-69
2023/08/11 05:50:06;;;;;;;6.93;4.67;;;16.10;99.90;;;;;;5010708;28;20449;-70
2023/08/11 05:52:33;;;;;;;6.47;3.50;;;16.30;99.90;;;;;;5010034;28;20469;-70
2023/08/11 05:54:59;;;;;;;6.63;4.17;;;16.60;99.90;;;;;;5010047;28;20494;-70
2023/08/11 05:57:26;;;;;;;8.07;4.80;;;17.00;99.90;;;;;;5011096;28;20984;-70
2023/08/11 05:59:54;;;;;;;9.33;4.13;;;17.50;99.90;;;;;;5011296;28;20440;-70
2023/08/11 06:02:20;;;;;;;6.63;3.50;;;17.70;99.90;;;;;;5011139;28;20450;-70
2023/08/11 06:04:50;;;;;;;7.63;3.53;;;18.00;99.90;;;;;;5010486;28;20965;-70
2023/08/11 06:07:17;;;;;;;6.20;3.87;;;18.10;99.90;;;;;;5012162;28;20950;-70
2023/08/11 06:09:44;;;;;;;11.50;4.30;;;18.40;99.90;;;;;;5010518;28;20820;-70
2023/08/11 06:12:11;;;;;;;8.87;4.20;;;18.70;99.90;;;;;;5011632;28;20817;-71
2023/08/11 06:14:37;;;;;;;7.73;3.50;;;19.00;99.90;;;;;;5014028;28;20493;-70
2023/08/11 06:17:05;;;;;;;9.07;3.60;;;19.30;99.90;;;;;;5010714;28;20520;-68
2023/08/11 06:19:32;;;;;;;9.33;3.43;;;19.60;99.90;;;;;;5025403;28;20881;-69
2023/08/11 06:21:59;;;;;;;5.80;3.23;;;19.80;99.90;;;;;;5014974;28;20508;-68
2023/08/11 06:24:26;;;;;;;8.77;3.73;;;20.00;99.90;;;;;;5014885;28;20882;-68
2023/08/11 06:26:53;;;;;;;6.00;3.83;;;20.20;99.90;;;;;;5018878;28;20458;-68
2023/08/11 06:29:20;;;;;;;4.83;3.50;;;20.40;99.90;;;;;;5014447;28;20470;-68
2023/08/11 06:31:47;;;;;;;5.30;3.70;;;20.50;99.90;;;;;;5014598;28;20942;-68
2023/08/11 06:34:17;;;;;;;10.27;3.67;;;20.60;99.90;;;;;;5014136;28;20481;-69
2023/08/11 06:36:44;;;;;;;6.13;3.30;;;20.70;99.90;;;;;;5014621;28;20457;-69
2023/08/11 06:39:11;;;;;;;6.40;3.87;;;20.80;99.90;;;;;;5014605;28;20532;-69
2023/08/11 06:41:38;;;;;;;6.50;3.70;;;20.80;99.90;;;;;;5022001;28;20469;-69
2023/08/11 06:44:05;;;;;;;5.57;3.53;;;20.80;99.90;;;;;;5016544;28;20520;-69
2023/08/11 06:46:32;;;;;;;7.80;3.40;;;20.90;99.90;;;;;;5016431;28;20467;-69
2023/08/11 06:48:58;;;;;;;6.70;3.97;;;20.90;99.90;;;;;;5014166;28;20466;-69
2023/08/11 06:51:26;;;;;;;19.20;3.77;;;20.90;99.90;;;;;;5014725;28;20447;-69
2023/08/11 06:53:53;;;;;;;8.50;3.57;;;20.90;99.90;;;;;;5014184;28;20462;-69
2023/08/11 06:56:19;;;;;;;7.23;3.20;;;21.00;99.90;;;;;;5015569;28;20454;-69
2023/08/11 06:58:46;;;;;;;3.90;3.47;;;21.10;99.90;;;;;;5013887;28;20478;-69
2023/08/11 07:01:17;;;;;;;4.30;3.60;;;21.20;99.90;;;;;;5014075;28;20525;-70
2023/08/11 07:03:44;;;;;;;8.70;3.60;;;21.20;99.90;;;;;;5013596;28;20969;-68
2023/08/11 07:06:11;;;;;;;17.43;3.30;;;21.40;99.90;;;;;;5014432;28;20488;-69
2023/08/11 07:08:39;;;;;;;9.60;3.83;;;21.40;99.90;;;;;;5014028;28;20470;-69
2023/08/11 07:11:05;;;;;;;6.90;3.37;;;21.50;99.90;;;;;;5013774;28;20457;-68
2023/08/11 07:13:32;;;;;;;9.03;3.77;;;21.70;99.90;;;;;;5014056;28;21112;-69
2023/08/11 07:15:59;;;;;;;9.33;3.47;;;21.90;99.90;;;;;;5013989;28;20536;-68
2023/08/11 07:18:27;;;;;;;12.60;3.73;;;21.90;99.90;;;;;;5013925;28;20446;-69
2023/08/11 07:20:53;;;;;;;6.67;4.07;;;22.10;99.90;;;;;;5013805;28;20493;-69
2023/08/11 07:23:20;;;;;;;14.97;3.67;;;22.30;99.90;;;;;;5013666;28;20442;-69
2023/08/11 07:25:48;;;;;;;8.00;3.30;;;22.40;99.90;;;;;;5020080;28;20449;-69
2023/08/11 07:28:15;;;;;;;4.73;2.93;;;22.30;99.90;;;;;;5013470;28;20508;-68
2023/08/11 07:30:41;;;;;;;6.77;3.20;;;22.40;99.90;;;;;;5013834;28;20519;-69
2023/08/11 07:33:08;;;;;;;9.00;3.97;;;22.50;99.90;;;;;;5013907;28;20450;-68
2023/08/11 07:35:35;;;;;;;6.47;3.30;;;22.40;99.90;;;;;;5014846;28;20497;-69
2023/08/11 07:38:02;;;;;;;3.90;3.30;;;22.40;99.90;;;;;;5019359;28;20454;-68
2023/08/11 07:40:29;;;;;;;7.23;3.73;;;22.30;99.90;;;;;;5014415;28;20931;-69
2023/08/11 07:42:58;;;;;;;9.73;3.50;;;22.30;99.90;;;;;;5013341;28;20459;-69
2023/08/11 07:45:24;;;;;;;5.73;3.30;;;22.20;99.90;;;;;;5014026;28;20461;-68
2023/08/11 07:47:51;;;;;;;4.13;3.33;;;22.20;99.90;;;;;;5013223;28;20458;-69
2023/08/11 07:50:18;;;;;;;15.40;3.40;;;22.10;99.90;;;;;;5013217;28;20592;-69
2023/08/11 07:52:45;;;;;;;3.70;3.37;;;22.20;99.90;;;;;;5012944;28;20517;-69
2023/08/11 07:55:12;;;;;;;7.30;4.17;;;22.30;99.90;;;;;;5013472;28;20496;-69
2023/08/11 07:57:38;;;;;;;11.43;3.77;;;22.40;99.90;;;;;;5013346;28;20450;-69
2023/08/11 08:00:16;;;;;;;5.40;3.73;;;22.20;99.90;;;;;;5012984;28;20524;-68
2023/08/11 08:02:43;;;;;;;5.17;3.30;;;22.40;99.90;;;;;;5013148;28;20454;-69
2023/08/11 08:05:09;;;;;;;7.73;3.10;;;22.60;99.90;;;;;;5013491;28;20454;-69
2023/08/11 08:07:36;;;;;;;9.67;3.97;;;22.70;99.90;;;;;;5013248;28;20450;-69
2023/08/11 08:10:08;;;;;;;12.23;3.57;;;22.90;99.90;;;;;;5012665;28;20513;-69
2023/08/11 08:12:35;;;;;;;9.53;4.00;;;23.10;99.90;;;;;;5012784;28;20454;-69
2023/08/11 08:15:02;;;;;;;6.50;4.03;;;23.20;99.90;;;;;;5017214;28;20486;-68
2023/08/11 08:17:31;;;;;;;5.83;3.63;;;23.10;99.90;;;;;;5012459;28;20496;-69
2023/08/11 08:19:57;;;;;;;5.20;3.60;;;22.90;99.90;;;;;;5012555;28;20478;-70
2023/08/11 08:22:24;;;;;;;6.60;3.67;;;23.20;99.90;;;;;;5018169;28;20498;-69
2023/08/11 08:24:51;;;;;;;9.40;3.60;;;23.50;99.90;;;;;;5012301;28;20480;-69
2023/08/11 08:27:24;;;;;;;5.90;3.80;;;23.50;99.90;;;;;;5012658;28;20450;-69
2023/08/11 08:29:51;;;;;;;8.03;3.87;;;23.70;99.90;;;;;;5012189;28;20474;-69
2023/08/11 08:32:17;;;;;;;5.30;3.80;;;23.60;99.90;;;;;;5012302;28;21028;-69
2023/08/11 08:34:45;;;;;;;10.73;3.73;;;23.80;99.90;;;;;;5012391;28;20506;-69
2023/08/11 08:37:12;;;;;;;9.63;3.40;;;23.80;99.90;;;;;;5012366;28;20451;-69
2023/08/11 08:39:38;;;;;;;3.47;3.17;;;23.70;99.90;;;;;;5012218;28;20474;-69
2023/08/11 08:42:06;;;;;;;17.10;4.17;;;24.10;99.90;;;;;;5012403;28;20454;-69
2023/08/11 08:44:35;;;;;;;9.77;3.60;;;24.50;99.90;;;;;;5012143;28;20509;-70
2023/08/11 08:47:05;;;;;;;6.00;3.87;;;24.90;99.90;;;;;;5012359;28;20493;-69
2023/08/11 08:49:32;;;;;;;4.97;3.50;;;25.00;99.90;;;;;;5011667;28;20470;-69
2023/08/11 08:52:01;;;;;;;4.40;3.77;;;24.90;99.90;;;;;;5012037;28;20489;-69
2023/08/11 08:54:29;;;;;;;10.57;3.47;;;24.80;99.90;;;;;;5011987;28;20534;-68
2023/08/11 08:56:57;;;;;;;9.73;3.60;;;24.90;99.90;;;;;;5016431;28;21029;-69
2023/08/11 08:59:24;;;;;;;10.27;3.50;;;25.20;99.90;;;;;;5011492;28;20478;-68
2023/08/11 09:01:51;;;;;;;7.33;3.47;;;25.50;99.90;;;;;;5016590;28;20533;-69
2023/08/11 09:04:20;;;;;;;13.43;3.90;;;25.60;99.90;;;;;;5011395;28;20450;-69
2023/08/11 09:06:47;;;;;;;11.60;3.90;;;25.50;99.90;;;;;;5011718;28;20526;-68
2023/08/11 09:09:16;;;;;;;4.20;3.30;;;25.50;99.90;;;;;;5011766;28;20470;-68
2023/08/11 09:11:43;;;;;;;7.40;3.90;;;25.30;99.90;;;;;;5011115;28;20548;-68
2023/08/11 09:14:11;;;;;;;6.30;3.43;;;25.30;99.90;;;;;;5011504;28;20941;-69
2023/08/11 09:16:39;;;;;;;5.70;3.43;;;25.50;99.90;;;;;;5014028;28;20494;-69
2023/08/11 09:19:07;;;;;;;10.13;2.93;;;25.70;99.90;;;;;;5011545;28;20490;-68
2023/08/11 09:21:34;;;;;;;4.90;3.37;;;25.70;99.90;;;;;;5011418;28;20454;-68
2023/08/11 09:24:01;;;;;;;9.10;3.90;;;25.70;99.90;;;;;;5011878;28;20572;-68
2023/08/11 09:26:29;;;;;;;8.67;3.30;;;26.00;99.90;;;;;;5011517;28;20500;-68
2023/08/11 09:28:56;;;;;;;15.93;3.20;;;26.40;99.90;;;;;;5011109;28;20544;-69
2023/08/11 09:31:22;;;;;;;7.17;3.70;;;26.70;99.90;;;;;;5011228;28;20841;-68
2023/08/11 09:33:49;;;;;;;6.17;4.07;;;26.80;99.90;;;;;;5011063;28;20489;-68
2023/08/11 09:36:17;;;;;;;15.33;3.17;;;27.10;99.90;;;;;;5011254;28;20493;-69
2023/08/11 09:38:44;;;;;;;4.87;3.30;;;27.00;99.90;;;;;;5011835;28;20478;-70
2023/08/11 09:41:12;;;;;;;8.13;3.47;;;27.30;99.90;;;;;;5010556;28;20446;-70
2023/08/11 09:43:46;;;;;;;7.90;3.37;;;27.20;99.90;;;;;;5010534;28;20486;-71
2023/08/11 09:46:13;;;;;;;5.90;3.60;;;27.30;99.90;;;;;;5010540;28;20449;-70
2023/08/11 09:48:40;;;;;;;5.53;3.17;;;27.40;99.90;;;;;;5010311;28;20470;-69
2023/08/11 09:51:10;;;;;;;5.07;3.43;;;27.30;99.90;;;;;;5010116;28;20450;-69
2023/08/11 09:53:38;;;;;;;6.70;3.40;;;27.40;99.90;;;;;;5006679;28;20466;-70
2023/08/11 09:56:05;;;;;;;4.90;3.30;;;27.60;99.90;;;;;;5010478;28;20497;-71
2023/08/11 09:58:33;;;;;;;3.90;3.10;;;27.80;99.90;;;;;;5010256;28;20470;-70
2023/08/11 10:01:02;;;;;;;6.50;3.23;;;28.00;99.90;;;;;;5011406;28;20461;-70
2023/08/11 10:03:33;;;;;;;3.20;2.90;;;28.00;99.90;;;;;;5014540;28;20457;-69
2023/08/11 10:06:02;;;;;;;3.47;3.13;;;28.00;99.90;;;;;;5011962;28;20993;-70
2023/08/11 10:08:30;;;;;;;2.97;2.67;;;28.00;99.90;;;;;;5010474;28;20466;-70
2023/08/11 10:10:57;;;;;;;6.23;3.20;;;28.20;99.90;;;;;;5015349;28;20458;-70
2023/08/11 10:13:28;;;;;;;9.87;3.30;;;28.10;99.90;;;;;;5010601;28;20450;-69
2023/08/11 10:15:56;;;;;;;5.67;3.57;;;27.90;99.90;;;;;;5012601;28;20526;-70
2023/08/11 10:18:25;;;;;;;6.97;2.90;;;27.90;99.90;;;;;;5010223;28;20966;-70
2023/08/11 10:20:52;;;;;;;3.67;3.17;;;28.10;99.90;;;;;;5010168;28;20450;-70
2023/08/11 10:23:19;;;;;;;6.13;3.30;;;28.20;99.90;;;;;;5010494;28;20442;-71
2023/08/11 10:25:46;;;;;;;7.50;3.40;;;28.20;99.90;;;;;;5010244;28;20520;-70
2023/08/11 10:28:13;;;;;;;6.07;3.23;;;28.30;99.90;;;;;;5011604;28;20446;-70
2023/08/11 10:30:40;;;;;;;4.67;3.60;;;28.30;99.90;;;;;;5015097;28;20466;-70
2023/08/11 10:33:08;;;;;;;22.93;3.57;;;28.60;99.90;;;;;;5010381;28;20529;-69
2023/08/11 10:35:48;;;;;;;9.47;3.13;;;28.70;99.90;;;;;;5010295;28;20493;-69
2023/08/11 10:38:22;;;;;;;5.80;3.40;;;28.70;99.90;;;;;;5010359;28;20454;-70
2023/08/11 10:40:49;;;;;;;20.23;4.00;;;28.60;99.90;;;;;;5016959;28;20461;-70
2023/08/11 10:43:18;;;;;;;4.17;3.57;;;28.70;99.90;;;;;;5010563;28;20541;-71
2023/08/11 10:45:46;;;;;;;9.70;3.77;;;28.80;99.90;;;;;;5010082;28;20795;-70
2023/08/11 10:48:12;;;;;;;7.60;3.27;;;28.90;99.90;;;;;;5010043;28;20443;-70
2023/08/11 10:50:40;;;;;;;6.33;3.37;;;29.10;99.90;;;;;;5009738;28;20451;-71
2023/08/11 10:53:11;;;;;;;3.50;2.77;;;29.10;99.90;;;;;;5010854;28;20454;-71
2023/08/11 10:55:40;;;;;;;5.53;3.10;;;28.90;99.90;;;;;;5010428;28;20486;-70
2023/08/11 10:58:11;;;;;;;10.13;3.40;;;29.00;99.90;;;;;;5009883;28;20829;-70
2023/08/11 11:00:38;;;;;;;5.80;3.50;;;29.00;99.90;;;;;;5009910;28;20454;-71
2023/08/11 11:03:05;;;;;;;4.57;3.10;;;28.80;99.90;;;;;;5009664;28;21216;-70
2023/08/11 11:05:32;;;;;;;4.07;3.00;;;28.80;99.90;;;;;;5013465;28;20514;-70
2023/08/11 11:08:00;;;;;;;7.03;3.10;;;28.80;99.90;;;;;;5013864;28;20454;-68
2023/08/11 11:10:28;;;;;;;2.93;2.73;;;28.70;99.90;;;;;;5013442;28;20466;-69
2023/08/11 11:12:55;;;;;;;5.67;2.73;;;28.50;99.90;;;;;;5013448;28;20549;-69
2023/08/11 11:15:22;;;;;;;6.63;3.10;;;28.50;99.90;;;;;;5013425;28;20813;-69
2023/08/11 11:17:50;;;;;;;8.03;3.27;;;28.60;99.90;;;;;;5013178;28;20509;-70
2023/08/11 11:20:17;;;;;;;3.80;3.00;;;28.60;99.90;;;;;;5013198;28;20470;-70
2023/08/11 11:22:47;;;;;;;6.53;2.90;;;28.90;99.90;;;;;;5013640;28;20454;-67
2023/08/11 11:25:17;;;;;;;4.53;2.80;;;28.80;99.90;;;;;;5012995;28;20446;-68
2023/08/11 11:27:44;;;;;;;5.30;2.90;;;28.90;99.90;;;;;;5012961;28;20454;-70
2023/08/11 11:30:11;;;;;;;3.77;3.47;;;28.90;99.90;;;;;;5013227;28;20486;-69
2023/08/11 11:32:39;;;;;;;5.33;3.27;;;29.00;99.90;;;;;;5013773;28;20513;-69
2023/08/11 11:35:06;;;;;;;3.67;3.20;;;28.90;99.90;;;;;;5013635;28;20501;-69
2023/08/11 11:37:34;;;;;;;6.33;2.93;;;29.10;99.90;;;;;;5013612;28;20488;-68
2023/08/11 11:40:05;;;;;;;5.00;3.00;;;29.20;99.90;;;;;;5013182;28;20516;-68
2023/08/11 11:42:35;;;;;;;3.90;3.30;;;29.20;99.90;;;;;;5013251;28;20612;-68
2023/08/11 11:45:02;;;;;;;6.63;3.03;;;29.30;99.90;;;;;;5013174;28;20938;-68
2023/08/11 11:47:29;;;;;;;9.57;3.13;;;29.60;99.90;;;;;;5013852;28;20813;-68
2023/08/11 11:49:56;;;;;;;3.07;2.77;;;29.70;99.90;;;;;;5014308;28;20478;-68
2023/08/11 11:52:23;;;;;;;7.60;2.80;;;29.70;99.90;;;;;;5013430;28;20451;-68
2023/08/11 11:54:51;;;;;;;4.60;3.30;;;29.60;99.90;;;;;;5012912;28;20505;-68
2023/08/11 11:57:18;;;;;;;5.00;3.60;;;29.50;99.90;;;;;;5012912;28;20486;-67
2023/08/11 11:59:47;;;;;;;4.37;3.03;;;29.40;99.90;;;;;;5013015;28;20556;-68
2023/08/11 12:02:15;;;;;;;4.90;3.23;;;29.60;99.90;;;;;;5014438;28;20501;-68
2023/08/11 12:04:43;;;;;;;4.40;3.30;;;29.80;99.90;;;;;;5020682;28;20945;-68
2023/08/11 12:07:09;;;;;;;3.53;2.67;;;30.00;99.90;;;;;;5014173;28;20806;-68
2023/08/11 12:09:50;;;;;;;4.20;2.77;;;30.10;99.90;;;;;;5013113;28;20581;-68
2023/08/11 12:12:17;;;;;;;4.50;2.60;;;30.10;99.90;;;;;;5012782;28;20486;-68
2023/08/11 12:14:44;;;;;;;6.03;2.77;;;30.20;99.90;;;;;;5015395;28;20540;-68
2023/08/11 12:17:12;;;;;;;4.70;3.20;;;29.90;99.90;;;;;;5012449;28;20490;-68
2023/08/11 12:19:39;;;;;;;4.07;2.70;;;29.80;99.90;;;;;;5012508;28;20500;-69
2023/08/11 12:22:05;;;;;;;6.20;3.00;;;29.70;99.90;;;;;;5012788;28;20996;-69
2023/08/11 12:24:32;;;;;;;4.60;3.00;;;29.80;99.90;;;;;;5012999;28;20450;-68
2023/08/11 12:26:59;;;;;;;8.00;2.37;;;29.80;99.90;;;;;;5012737;28;20861;-68
2023/08/11 12:29:25;;;;;;;3.10;2.83;;;30.00;99.90;;;;;;5012320;28;20501;-68
2023/08/11 12:31:52;;;;;;;5.80;2.67;;;30.00;99.90;;;;;;5016052;28;20507;-68
2023/08/11 12:34:20;;;;;;;6.60;2.73;;;30.00;99.90;;;;;;5013440;28;20521;-69
2023/08/11 12:36:47;;;;;;;3.20;2.90;;;30.10;99.90;;;;;;5012544;28;21012;-68
2023/08/11 12:39:13;;;;;;;3.87;2.90;;;30.20;99.90;;;;;;5011936;28;20470;-68
2023/08/11 12:41:40;;;;;;;4.07;2.70;;;30.30;99.90;;;;;;5012136;28;20460;-67
2023/08/11 12:44:07;;;;;;;2.60;2.37;;;30.20;99.90;;;;;;5012036;28;20454;-68
2023/08/11 12:46:33;;;;;;;6.87;3.10;;;30.20;99.90;;;;;;5012003;28;20524;-69